Time;durP1;ratioP1;P1;durP2;ratioP2;P2;SDS_P1;SDS_P2;PMS_P1;PMS_P2;Temp;Humidity;BMP_temperature;BMP_pressure;BME280_temperature;BME280_humidity;BME280_pressure;Samples;Min_cycle;Max_cycle;Signal;HPM_P1;HPM_P2
2022/12/30 00:01:52;;;;;;;;;;;;;;;16.95;39.63;101635.10;102224;1326;62243;-82
2022/12/30 00:04:17;;;;;;;;;;;;;;;16.94;39.65;101636.19;102257;1326;62187;-82
2022/12/30 00:06:43;;;;;;;;;;;;;;;16.94;39.73;101635.13;102276;1330;59771;-82
2022/12/30 00:09:08;;;;;;;;;;;;;;;16.94;39.63;101637.08;102211;1329;62276;-83
2022/12/30 00:11:34;;;;;;;;;;;;;;;16.94;39.62;101637.27;102194;1324;62112;-83
2022/12/30 00:33:25;;;;;;;;;;;;;;;16.91;39.70;101649.08;102288;1326;60703;-83
2022/12/30 00:35:50;;;;;;;;;;;;;;;16.91;39.69;101649.80;102203;1333;62122;-82
2022/12/30 00:38:16;;;;;;;;;;;;;;;16.91;39.68;101650.87;102224;1326;62229;-82
2022/12/30 00:43:07;;;;;;;;;;;;;;;16.91;39.66;101656.02;102287;1325;62185;-82
2022/12/30 00:43:27;;;;;;;;;;;;;;;16.91;39.67;101656.05;102243;1325;61990;-83
2022/12/30 00:45:53;;;;;;;;;;;;;;;16.91;39.66;101657.83;102211;1329;62092;-82
2022/12/30 00:56:32;;;;;;;;;;;;;;;16.90;39.71;101651.10;102326;1329;60208;-83
2022/12/30 00:58:57;;;;;;;;;;;;;;;16.89;39.70;101641.35;102245;1332;62069;-83
2022/12/30 01:01:22;;;;;;;;;;;;;;;16.89;39.68;101642.05;102200;1331;62292;-82
2022/12/30 01:03:48;;;;;;;;;;;;;;;16.89;39.70;101649.35;102151;1328;62127;-82
2022/12/30 01:06:13;;;;;;;;;;;;;;;16.89;39.66;101653.25;102221;1328;62128;-83
2022/12/30 01:08:38;;;;;;;;;;;;;;;16.89;39.66;101647.56;102157;1327;62197;-82
2022/12/30 01:11:07;;;;;;;;;;;;;;;16.89;39.71;101641.70;102159;1328;62046;-82
2022/12/30 01:13:35;;;;;;;;;;;;;;;16.89;39.74;101637.98;102229;1333;73371;-82
2022/12/30 01:16:08;;;;;;;;;;;;;;;16.88;39.75;101633.34;102209;1332;62117;-83
2022/12/30 01:18:34;;;;;;;;;;;;;;;16.89;39.63;101630.48;102187;1332;62027;-83
2022/12/30 01:21:00;;;;;;;;;;;;;;;16.88;39.63;101626.78;102227;1328;62087;-83
2022/12/30 01:23:25;;;;;;;;;;;;;;;16.88;39.64;101626.45;102241;1332;62166;-82
2022/12/30 01:25:51;;;;;;;;;;;;;;;16.87;39.63;101623.78;102213;1326;62079;-83
2022/12/30 01:28:16;;;;;;;;;;;;;;;16.87;39.75;101623.27;102209;1333;62255;-82
2022/12/30 01:30:42;;;;;;;;;;;;;;;16.87;39.64;101621.33;102245;1333;62081;-83
2022/12/30 01:33:08;;;;;;;;;;;;;;;16.87;39.65;101619.73;102195;1332;73539;-83
2022/12/30 01:35:33;;;;;;;;;;;;;;;16.87;39.75;101620.80;102191;1330;62198;-83
2022/12/30 01:37:59;;;;;;;;;;;;;;;16.86;39.64;101616.00;102223;1330;62220;-82
2022/12/30 01:40:24;;;;;;;;;;;;;;;16.86;39.62;101614.23;102164;1327;62115;-82
2022/12/30 01:42:49;;;;;;;;;;;;;;;16.86;39.70;101612.80;102287;1333;62089;-83
2022/12/30 01:45:22;;;;;;;;;;;;;;;16.86;39.68;101612.27;102206;1332;62191;-82
2022/12/30 01:47:54;;;;;;;;;;;;;;;16.85;39.64;101610.17;102233;1330;76701;-82
2022/12/30 01:50:22;;;;;;;;;;;;;;;16.85;39.73;101600.77;102254;1330;61968;-82
2022/12/30 01:52:55;;;;;;;;;;;;;;;16.85;39.67;101606.09;102307;1324;62151;-82
2022/12/30 01:55:26;;;;;;;;;;;;;;;16.85;39.71;101602.73;102324;1329;73540;-82
2022/12/30 01:57:51;;;;;;;;;;;;;;;16.85;39.64;101602.91;102209;1325;75515;-83
2022/12/30 02:00:17;;;;;;;;;;;;;;;16.85;39.67;101603.83;102244;1332;62149;-83
2022/12/30 02:02:42;;;;;;;;;;;;;;;16.84;39.70;101601.19;102225;1329;62141;-83
2022/12/30 02:05:07;;;;;;;;;;;;;;;16.84;39.69;101598.31;102182;1326;62119;-83
2022/12/30 02:07:34;;;;;;;;;;;;;;;16.84;39.70;101600.48;102273;1326;62146;-83
2022/12/30 02:10:00;;;;;;;;;;;;;;;16.83;39.77;101604.58;102204;1325;75339;-83
2022/12/30 02:12:25;;;;;;;;;;;;;;;16.84;39.69;101609.37;102178;1333;62098;-83
2022/12/30 02:14:53;;;;;;;;;;;;;;;16.83;39.78;101613.12;102231;1332;62121;-83
2022/12/30 02:17:39;;;;;;;;;;;;;;;16.83;39.77;101617.39;102237;1332;60905;-83
2022/12/30 02:20:08;;;;;;;;;;;;;;;16.83;39.59;101619.00;102190;1336;74134;-82
2022/12/30 02:22:52;;;;;;;;;;;;;;;16.82;39.65;101619.38;102243;1323;62778;-82
2022/12/30 02:25:20;;;;;;;;;;;;;;;16.82;39.72;101615.46;102218;1327;61898;-83
2022/12/30 02:27:52;;;;;;;;;;;;;;;16.82;39.70;101616.73;102314;1326;72847;-83
2022/12/30 02:30:27;;;;;;;;;;;;;;;16.82;39.74;101619.94;102224;1330;76370;-83
2022/12/30 02:33:02;;;;;;;;;;;;;;;16.81;39.67;101618.70;102269;1325;62121;-83
2022/12/30 02:35:44;;;;;;;;;;;;;;;16.81;39.69;101616.58;102271;1326;62128;-83
2022/12/30 02:38:28;;;;;;;;;;;;;;;16.81;39.70;101615.16;102261;1325;73524;-83
2022/12/30 02:46:32;;;;;;;;;;;;;;;16.80;39.64;101597.08;102336;1334;60893;-83
2022/12/30 02:48:57;;;;;;;;;;;;;;;16.80;39.72;101598.48;102249;1326;73447;-82
2022/12/30 02:54:07;;;;;;;;;;;;;;;16.80;39.70;101598.84;102256;1332;62230;-83
2022/12/30 02:56:32;;;;;;;;;;;;;;;16.80;39.73;101602.95;102239;1332;60901;-83
2022/12/30 03:04:45;;;;;;;;;;;;;;;16.79;39.72;101611.16;102270;1324;62119;-81
2022/12/30 03:07:29;;;;;;;;;;;;;;;16.79;39.69;101610.46;102262;1330;60831;-83
2022/12/30 03:12:46;;;;;;;;;;;;;;;16.78;39.68;101606.57;102203;1332;74509;-82
2022/12/30 03:15:16;;;;;;;;;;;;;;;16.78;39.66;101603.04;102251;1329;62048;-82
2022/12/30 03:17:41;;;;;;;;;;;;;;;16.78;39.69;101601.61;102228;1330;62119;-82
2022/12/30 03:20:08;;;;;;;;;;;;;;;16.77;39.77;101602.67;102205;1334;62198;-82
2022/12/30 03:28:07;;;;;;;;;;;;;;;16.77;39.71;101600.23;102295;1329;62210;-83
2022/12/30 03:30:33;;;;;;;;;;;;;;;16.77;39.72;101598.27;102224;1317;73360;-82
2022/12/30 03:32:59;;;;;;;;;;;;;;;16.76;39.68;101600.41;102245;1332;62170;-82
2022/12/30 03:35:24;;;;;;;;;;;;;;;16.76;39.73;101604.52;102192;1329;62119;-81
2022/12/30 03:37:50;;;;;;;;;;;;;;;16.76;39.62;101600.60;102161;1328;62089;-81
2022/12/30 03:40:29;;;;;;;;;;;;;;;16.75;39.67;101599.73;102211;1329;62172;-81
2022/12/30 03:42:54;;;;;;;;;;;;;;;16.75;39.66;101596.02;102216;1330;75480;-82
2022/12/30 03:45:20;;;;;;;;;;;;;;;16.75;39.77;101593.70;102232;1329;60849;-82
2022/12/30 03:47:46;;;;;;;;;;;;;;;16.75;39.70;101589.43;102230;1327;62086;-82
2022/12/30 03:50:12;;;;;;;;;;;;;;;16.75;39.68;101591.23;102193;1326;62081;-82
2022/12/30 03:52:39;;;;;;;;;;;;;;;16.74;39.59;101588.94;102164;1332;62208;-82
2022/12/30 03:55:06;;;;;;;;;;;;;;;16.74;39.64;101594.81;102215;1329;62182;-82
2022/12/30 03:57:32;;;;;;;;;;;;;;;16.74;39.72;101596.57;102178;1327;62091;-82
2022/12/30 03:59:57;;;;;;;;;;;;;;;16.74;39.69;101602.45;102168;1332;59845;-82
2022/12/30 04:02:23;;;;;;;;;;;;;;;16.74;39.59;101602.29;102200;1329;62135;-82
2022/12/30 04:04:48;;;;;;;;;;;;;;;16.74;39.60;101599.09;102253;1329;60674;-83
2022/12/30 04:07:14;;;;;;;;;;;;;;;16.73;39.63;101593.60;102288;1326;62085;-82
2022/12/30 04:09:39;;;;;;;;;;;;;;;16.73;39.73;101589.35;102286;1326;62128;-81
2022/12/30 04:12:05;;;;;;;;;;;;;;;16.73;39.72;101592.00;102179;1329;62240;-82
2022/12/30 04:14:30;;;;;;;;;;;;;;;16.73;39.67;101596.29;102225;1327;62120;-82
2022/12/30 04:16:55;;;;;;;;;;;;;;;16.73;39.66;101603.02;102244;1331;60915;-82
2022/12/30 04:19:21;;;;;;;;;;;;;;;16.72;39.68;101603.59;102229;1332;59410;-82
2022/12/30 04:21:46;;;;;;;;;;;;;;;16.72;39.70;101600.23;102215;1333;62179;-82
2022/12/30 04:24:12;;;;;;;;;;;;;;;16.72;39.67;101594.00;102192;1326;62091;-82
2022/12/30 04:26:37;;;;;;;;;;;;;;;16.72;39.78;101600.78;102244;1331;62121;-83
2022/12/30 04:29:02;;;;;;;;;;;;;;;16.72;39.63;101621.39;102197;1329;73975;-83
2022/12/30 04:31:51;;;;;;;;;;;;;;;16.71;39.71;101632.24;102267;1326;60473;-83
2022/12/30 04:34:17;;;;;;;;;;;;;;;16.71;39.64;101634.20;101975;1323;61949;-83
2022/12/30 04:36:42;;;;;;;;;;;;;;;16.71;39.67;101635.11;101972;1337;62134;-83
2022/12/30 04:39:08;;;;;;;;;;;;;;;16.71;39.72;101639.91;101978;1332;62381;-83
2022/12/30 04:41:33;;;;;;;;;;;;;;;16.71;39.60;101652.53;101958;1332;60889;-83
2022/12/30 04:44:01;;;;;;;;;;;;;;;16.70;39.67;101646.70;101948;1338;62135;-82
2022/12/30 04:46:27;;;;;;;;;;;;;;;16.70;39.74;101639.05;101914;1331;61976;-82
2022/12/30 04:48:53;;;;;;;;;;;;;;;16.70;39.70;101652.21;101985;1335;62007;-82
2022/12/30 04:51:18;;;;;;;;;;;;;;;16.71;39.66;101637.07;101955;1330;60934;-82
2022/12/30 04:53:43;;;;;;;;;;;;;;;16.69;39.60;101639.09;102067;1329;62138;-83
2022/12/30 04:56:09;;;;;;;;;;;;;;;16.70;39.61;101637.46;102064;1335;62118;-83
2022/12/30 04:58:34;;;;;;;;;;;;;;;16.69;39.66;101639.44;102028;1330;62002;-83
2022/12/30 05:01:00;;;;;;;;;;;;;;;16.69;39.59;101631.27;101925;1331;62136;-82
2022/12/30 05:03:25;;;;;;;;;;;;;;;16.69;39.60;101628.24;101958;1336;62127;-82
2022/12/30 05:05:51;;;;;;;;;;;;;;;16.69;39.63;101627.19;101931;1337;62112;-83
2022/12/30 05:08:16;;;;;;;;;;;;;;;16.69;39.62;101626.48;101993;1338;62146;-82
2022/12/30 05:10:41;;;;;;;;;;;;;;;16.69;39.57;101624.70;101990;1338;62313;-82
2022/12/30 05:13:07;;;;;;;;;;;;;;;16.68;39.59;101626.15;102224;1332;62166;-82
2022/12/30 05:15:32;;;;;;;;;;;;;;;16.68;39.54;101621.89;102217;1326;62244;-82
2022/12/30 05:17:58;;;;;;;;;;;;;;;16.68;39.65;101622.08;102246;1330;62109;-82
2022/12/30 05:20:23;;;;;;;;;;;;;;;16.68;39.60;101622.63;102272;1333;62212;-83
2022/12/30 05:22:49;;;;;;;;;;;;;;;16.68;39.54;101618.91;102238;1327;62674;-83
2022/12/30 05:26:15;;;;;;;;;;;;;;;16.67;39.58;101618.37;102224;1331;62092;-82
2022/12/30 05:28:09;;;;;;;;;;;;;;;16.67;39.62;101623.89;102154;1330;75165;-83
2022/12/30 05:30:34;;;;;;;;;;;;;;;16.67;39.63;101625.33;102225;1327;62217;-83
2022/12/30 05:33:01;;;;;;;;;;;;;;;16.67;39.61;101627.80;102293;1332;62085;-83
2022/12/30 05:35:26;;;;;;;;;;;;;;;16.66;39.63;101634.39;102295;1330;62020;-83
2022/12/30 05:37:52;;;;;;;;;;;;;;;16.66;39.56;101640.09;102203;1333;62126;-83
2022/12/30 05:40:40;;;;;;;;;;;;;;;16.66;39.55;101637.97;102287;1332;62205;-83
2022/12/30 05:43:06;;;;;;;;;;;;;;;16.66;39.57;101648.30;101964;1338;62241;-84
2022/12/30 05:45:31;;;;;;;;;;;;;;;16.65;39.61;101649.91;101916;1324;62128;-83
2022/12/30 05:47:57;;;;;;;;;;;;;;;16.65;39.53;101651.52;101917;1336;62179;-83
2022/12/30 05:50:22;;;;;;;;;;;;;;;16.65;39.60;101658.65;101949;1337;60177;-83
2022/12/30 05:52:47;;;;;;;;;;;;;;;16.64;39.60;101655.65;101974;1336;62230;-84
2022/12/30 05:55:13;;;;;;;;;;;;;;;16.64;39.57;101660.47;101973;1338;62145;-83
2022/12/30 05:57:38;;;;;;;;;;;;;;;16.63;39.57;101664.21;101971;1332;60945;-83
2022/12/30 06:00:04;;;;;;;;;;;;;;;16.63;39.48;101659.62;101956;1332;62077;-83
2022/12/30 06:02:31;;;;;;;;;;;;;;;16.63;39.56;101661.75;101927;1332;62130;-83
2022/12/30 06:04:57;;;;;;;;;;;;;;;16.62;39.38;101663.71;101961;1324;62217;-84
2022/12/30 06:07:22;;;;;;;;;;;;;;;16.62;39.51;101661.23;101981;1337;62206;-83
2022/12/30 06:09:47;;;;;;;;;;;;;;;16.61;39.45;101658.24;101973;1339;61113;-83
2022/12/30 06:12:13;;;;;;;;;;;;;;;16.61;39.42;101663.42;101946;1330;61117;-83
2022/12/30 06:14:38;;;;;;;;;;;;;;;16.61;39.56;101666.61;101950;1335;62284;-83
2022/12/30 06:17:04;;;;;;;;;;;;;;;16.61;39.44;101665.91;101937;1335;60822;-84
2022/12/30 06:19:30;;;;;;;;;;;;;;;16.60;39.52;101658.46;102088;1324;62170;-83
2022/12/30 06:21:55;;;;;;;;;;;;;;;16.59;39.42;101657.05;102338;1327;62106;-82
2022/12/30 06:24:21;;;;;;;;;;;;;;;16.60;39.48;101660.42;102153;1326;62314;-81
2022/12/30 06:26:46;;;;;;;;;;;;;;;16.60;39.39;101656.52;102180;1331;60760;-83
2022/12/30 06:29:12;;;;;;;;;;;;;;;16.59;39.46;101657.23;102255;1327;62112;-83
2022/12/30 06:31:38;;;;;;;;;;;;;;;16.59;39.42;101660.79;102355;1326;62206;-82
2022/12/30 06:34:04;;;;;;;;;;;;;;;16.59;39.40;101660.08;102353;1333;62008;-82
2022/12/30 06:36:29;;;;;;;;;;;;;;;16.59;39.47;101657.77;102302;1332;62164;-82
2022/12/30 06:38:54;;;;;;;;;;;;;;;16.59;39.36;101656.19;102253;1326;63586;-82
2022/12/30 06:41:20;;;;;;;;;;;;;;;16.59;39.37;101657.42;102264;1318;62272;-82
2022/12/30 06:43:45;;;;;;;;;;;;;;;16.60;39.46;101663.26;102345;1326;62088;-83
2022/12/30 06:46:11;;;;;;;;;;;;;;;16.59;39.41;101665.77;102332;1324;62098;-82
2022/12/30 06:48:36;;;;;;;;;;;;;;;16.59;39.33;101662.73;102184;1332;62195;-82
2022/12/30 06:51:02;;;;;;;;;;;;;;;16.59;39.34;101665.79;102283;1325;62078;-82
2022/12/30 06:53:27;;;;;;;;;;;;;;;16.59;39.50;101673.58;102211;1326;62222;-81
2022/12/30 06:55:53;;;;;;;;;;;;;;;16.59;39.43;101673.95;102213;1320;62137;-81
2022/12/30 06:58:18;;;;;;;;;;;;;;;16.59;39.37;101670.04;102213;1329;62668;-82
2022/12/30 07:00:46;;;;;;;;;;;;;;;16.59;39.36;101675.22;102203;1327;62175;-82
2022/12/30 07:03:11;;;;;;;;;;;;;;;16.59;39.38;101671.84;102227;1326;62107;-82
2022/12/30 07:05:36;;;;;;;;;;;;;;;16.58;39.31;101666.70;102199;1329;62128;-82
2022/12/30 07:08:02;;;;;;;;;;;;;;;16.58;39.38;101667.95;102224;1326;60885;-82
2022/12/30 07:10:27;;;;;;;;;;;;;;;16.58;39.34;101669.20;102223;1329;62191;-82
2022/12/30 07:12:53;;;;;;;;;;;;;;;16.58;39.32;101670.61;102452;1320;62118;-82
2022/12/30 07:15:18;;;;;;;;;;;;;;;16.58;39.36;101672.94;102319;1326;62198;-83
2022/12/30 07:17:44;;;;;;;;;;;;;;;16.58;39.24;101674.17;102315;1326;61079;-81
2022/12/30 07:20:12;;;;;;;;;;;;;;;16.58;39.33;101681.45;102235;1329;62068;-81
2022/12/30 07:22:38;;;;;;;;;;;;;;;16.58;39.34;101688.39;102244;1332;62127;-81
2022/12/30 07:25:03;;;;;;;;;;;;;;;16.58;39.37;101689.62;102273;1326;62130;-82
2022/12/30 07:27:29;;;;;;;;;;;;;;;16.58;39.24;101686.80;102254;1323;62069;-82
2022/12/30 07:29:54;;;;;;;;;;;;;;;16.58;39.34;101685.36;102309;1326;62181;-82
2022/12/30 07:32:20;;;;;;;;;;;;;;;16.58;39.36;101692.11;102269;1326;62190;-82
2022/12/30 07:35:09;;;;;;;;;;;;;;;16.58;39.35;101701.36;102241;1332;62196;-82
2022/12/30 07:37:37;;;;;;;;;;;;;;;16.58;39.36;101707.06;102017;1336;76477;-82
2022/12/30 07:40:03;;;;;;;;;;;;;;;16.58;39.27;101703.15;101942;1332;62023;-82
2022/12/30 07:42:28;;;;;;;;;;;;;;;16.58;39.29;101704.58;102088;1336;62119;-82
2022/12/30 07:44:53;;;;;;;;;;;;;;;16.58;39.34;101704.04;102063;1336;62166;-82
2022/12/30 07:47:19;;;;;;;;;;;;;;;16.57;39.31;101706.91;102031;1329;62407;-82
2022/12/30 07:49:44;;;;;;;;;;;;;;;16.58;39.24;101714.69;102040;1332;62124;-82
2022/12/30 07:52:10;;;;;;;;;;;;;;;16.58;39.35;101722.16;102059;1336;61352;-81
2022/12/30 07:54:35;;;;;;;;;;;;;;;16.58;39.27;101722.50;102115;1329;62186;-82
2022/12/30 07:57:00;;;;;;;;;;;;;;;16.58;39.28;101714.85;102001;1337;62131;-82
2022/12/30 07:59:26;;;;;;;;;;;;;;;16.58;39.40;101716.81;101957;1338;61816;-82
2022/12/30 08:01:51;;;;;;;;;;;;;;;16.59;39.36;101716.27;102042;1332;62122;-82
2022/12/30 08:04:18;;;;;;;;;;;;;;;16.58;39.32;101714.86;101939;1332;62097;-82
2022/12/30 08:06:43;;;;;;;;;;;;;;;16.59;39.35;101715.38;102041;1332;62075;-82
2022/12/30 08:09:09;;;;;;;;;;;;;;;16.59;39.27;101716.09;101934;1332;62195;-83
2022/12/30 08:11:34;;;;;;;;;;;;;;;16.59;39.33;101711.66;101898;1332;60887;-82
2022/12/30 08:14:00;;;;;;;;;;;;;;;16.58;39.23;101708.13;101985;1336;62161;-82
2022/12/30 08:16:25;;;;;;;;;;;;;;;16.58;39.32;101713.08;102287;1327;62198;-83
2022/12/30 08:18:51;;;;;;;;;;;;;;;16.57;39.35;101716.30;101651;1326;892503;-83
2022/12/30 08:21:16;;;;;;;;;;;;;;;16.58;39.24;101717.88;102218;1333;62153;-82
2022/12/30 08:23:44;;;;;;;;;;;;;;;16.58;39.28;101712.20;102270;1326;62231;-82
2022/12/30 08:26:10;;;;;;;;;;;;;;;16.58;39.28;101714.33;102293;1330;60231;-82
2022/12/30 08:28:35;;;;;;;;;;;;;;;16.58;39.36;101713.09;102168;1327;62166;-82
2022/12/30 08:31:05;;;;;;;;;;;;;;;16.58;39.34;101707.04;102199;1334;62748;-82
2022/12/30 08:33:32;;;;;;;;;;;;;;;16.59;39.36;101704.02;102252;1333;75190;-82
2022/12/30 08:36:06;;;;;;;;;;;;;;;16.59;39.23;101707.03;102226;1333;61659;-83
2022/12/30 08:38:32;;;;;;;;;;;;;;;16.58;39.33;101706.69;102291;1333;60747;-83
2022/12/30 08:41:05;;;;;;;;;;;;;;;16.58;39.27;101698.69;102345;1333;72661;-83
2022/12/30 08:43:30;;;;;;;;;;;;;;;16.58;39.25;101697.64;102304;1332;76399;-82
2022/12/30 08:45:56;;;;;;;;;;;;;;;16.58;39.35;101699.94;102272;1333;61851;-82
2022/12/30 08:48:22;;;;;;;;;;;;;;;16.58;39.35;101703.85;102300;1325;62122;-82
2022/12/30 08:50:47;;;;;;;;;;;;;;;16.58;39.27;101702.77;102220;1330;62118;-83
2022/12/30 08:53:13;;;;;;;;;;;;;;;16.58;39.40;101701.54;102172;1329;62199;-82
2022/12/30 08:55:38;;;;;;;;;;;;;;;16.59;39.35;101697.62;102266;1323;75306;-83
2022/12/30 08:58:04;;;;;;;;;;;;;;;16.58;39.42;101689.12;102226;1326;60179;-83
2022/12/30 09:00:29;;;;;;;;;;;;;;;16.58;39.30;101688.02;102206;1326;59873;-83
2022/12/30 09:02:54;;;;;;;;;;;;;;;16.58;39.36;101688.21;102250;1333;62173;-82
2022/12/30 09:05:20;;;;;;;;;;;;;;;16.57;39.37;101683.26;102247;1332;62183;-83
2022/12/30 09:07:45;;;;;;;;;;;;;;;16.58;39.29;101678.27;102328;1326;62117;-83
2022/12/30 09:10:12;;;;;;;;;;;;;;;16.57;39.26;101676.52;102176;1329;60858;-83
2022/12/30 09:12:38;;;;;;;;;;;;;;;16.58;39.33;101674.89;102232;1329;62213;-82
2022/12/30 09:15:04;;;;;;;;;;;;;;;16.57;39.39;101678.13;102182;1332;60673;-82
2022/12/30 09:17:30;;;;;;;;;;;;;;;16.58;39.30;101675.79;102260;1329;61965;-82
2022/12/30 09:19:55;;;;;;;;;;;;;;;16.57;39.28;101674.73;102260;1326;62115;-82
2022/12/30 09:22:20;;;;;;;;;;;;;;;16.58;39.36;101677.73;102321;1327;60048;-82
2022/12/30 09:24:46;;;;;;;;;;;;;;;16.57;39.34;101672.59;102274;1326;62047;-82
2022/12/30 09:27:11;;;;;;;;;;;;;;;16.57;39.36;101671.19;102249;1333;62187;-83
2022/12/30 09:29:37;;;;;;;;;;;;;;;16.57;39.35;101675.09;102188;1330;62240;-82
2022/12/30 09:32:02;;;;;;;;;;;;;;;16.57;39.32;101675.27;102227;1326;62122;-83
2022/12/30 09:34:28;;;;;;;;;;;;;;;16.57;39.25;101675.64;102267;1327;62061;-83
2022/12/30 09:36:53;;;;;;;;;;;;;;;16.57;39.29;101673.32;102194;1317;60801;-82
2022/12/30 09:39:30;;;;;;;;;;;;;;;16.57;39.38;101669.80;102208;1333;61059;-82
2022/12/30 09:44:47;;;;;;;;;;;;;;;16.56;39.40;101662.88;102200;1326;62118;-83
2022/12/30 09:47:14;;;;;;;;;;;;;;;16.56;39.42;101662.89;102199;1326;61061;-82
2022/12/30 09:49:41;;;;;;;;;;;;;;;16.56;39.39;101662.34;102197;1333;73564;-82
2022/12/30 09:52:18;;;;;;;;;;;;;;;16.56;39.35;101662.16;102233;1327;76220;-82
2022/12/30 09:54:45;;;;;;;;;;;;;;;16.56;39.35;101659.86;102195;1325;61054;-82
2022/12/30 10:00:13;;;;;;;;;;;;;;;16.56;39.40;101655.06;102013;1330;72791;-82
2022/12/30 10:02:44;;;;;;;;;;;;;;;16.56;39.44;101654.69;102252;1332;75466;-82
2022/12/30 10:05:10;;;;;;;;;;;;;;;16.56;39.39;101648.13;102183;1331;60497;-82
2022/12/30 10:07:43;;;;;;;;;;;;;;;16.56;39.47;101646.17;102283;1333;61991;-83
2022/12/30 10:10:16;;;;;;;;;;;;;;;16.56;39.37;101647.77;102274;1330;72557;-83
2022/12/30 10:13:00;;;;;;;;;;;;;;;16.56;39.50;101648.11;102288;1329;75337;-83
2022/12/30 10:15:25;;;;;;;;;;;;;;;16.56;39.40;101646.54;102267;1326;61859;-82
2022/12/30 10:17:51;;;;;;;;;;;;;;;16.56;39.44;101642.80;102254;1330;62216;-82
2022/12/30 10:20:17;;;;;;;;;;;;;;;16.55;39.45;101637.67;102233;1330;62088;-82
2022/12/30 10:23:12;;;;;;;;;;;;;;;16.55;39.42;101631.98;102234;1333;62046;-83
2022/12/30 10:25:39;;;;;;;;;;;;;;;16.55;39.42;101625.79;102230;1324;62121;-82
2022/12/30 10:28:04;;;;;;;;;;;;;;;16.55;39.45;101629.70;102249;1325;62052;-82
2022/12/30 10:30:34;;;;;;;;;;;;;;;16.54;39.48;101622.77;102258;1330;60818;-82
2022/12/30 10:33:05;;;;;;;;;;;;;;;16.54;39.45;101624.91;102238;1330;75332;-83
2022/12/30 10:35:31;;;;;;;;;;;;;;;16.54;39.43;101617.98;102220;1326;62010;-83
2022/12/30 10:38:16;;;;;;;;;;;;;;;16.55;39.45;101614.59;102234;1326;62099;-83
2022/12/30 10:41:08;;;;;;;;;;;;;;;16.54;39.46;101614.27;102178;1326;73654;-82
2022/12/30 10:43:40;;;;;;;;;;;;;;;16.54;39.37;101601.28;102185;1326;76587;-82
2022/12/30 10:46:21;;;;;;;;;;;;;;;16.54;39.49;101598.44;102286;1326;62030;-82
2022/12/30 10:48:59;;;;;;;;;;;;;;;16.54;39.44;101591.52;102259;1326;62015;-83
2022/12/30 10:51:25;;;;;;;;;;;;;;;16.54;39.49;101585.30;102225;1329;72471;-83
2022/12/30 10:53:52;;;;;;;;;;;;;;;16.54;39.46;101585.11;102200;1329;62001;-83
2022/12/30 10:56:27;;;;;;;;;;;;;;;16.54;39.51;101583.70;102200;1329;60844;-82
2022/12/30 10:59:13;;;;;;;;;;;;;;;16.54;39.53;101579.61;102192;1333;62295;-82
2022/12/30 11:01:38;;;;;;;;;;;;;;;16.54;39.54;101578.54;102200;1326;72530;-82
2022/12/30 11:04:04;;;;;;;;;;;;;;;16.54;39.53;101575.52;102202;1330;62113;-82
2022/12/30 11:06:33;;;;;;;;;;;;;;;16.55;39.55;101574.26;102230;1326;62238;-83
2022/12/30 11:09:13;;;;;;;;;;;;;;;16.54;39.56;101575.16;102239;1326;62169;-82
2022/12/30 11:14:44;;;;;;;;;;;;;;;16.54;39.55;101575.53;102254;1326;76228;-83
2022/12/30 11:17:09;;;;;;;;;;;;;;;16.54;39.65;101571.63;102339;1326;62080;-82
2022/12/30 11:19:35;;;;;;;;;;;;;;;16.54;39.61;101570.55;102291;1327;62146;-83
2022/12/30 11:22:02;;;;;;;;;;;;;;;16.54;39.70;101568.59;102233;1326;62314;-82
2022/12/30 11:24:27;;;;;;;;;;;;;;;16.54;39.80;101568.94;102212;1330;61963;-82
2022/12/30 11:26:53;;;;;;;;;;;;;;;16.54;39.69;101568.95;102243;1320;62124;-82
2022/12/30 11:29:19;;;;;;;;;;;;;;;16.54;39.77;101567.36;102281;1325;62102;-83
2022/12/30 11:31:47;;;;;;;;;;;;;;;16.54;39.80;101563.45;102216;1326;62073;-83
2022/12/30 11:34:48;;;;;;;;;;;;;;;16.54;39.83;101568.77;102215;1326;72897;-83
2022/12/30 11:37:33;;;;;;;;;;;;;;;16.54;39.76;101566.13;102000;1324;76289;-83
2022/12/30 11:39:59;;;;;;;;;;;;;;;16.54;39.76;101563.63;102015;1329;62109;-83
2022/12/30 11:42:27;;;;;;;;;;;;;;;16.53;39.86;101563.30;101968;1330;61983;-83
2022/12/30 11:45:03;;;;;;;;;;;;;;;16.54;39.81;101561.14;101950;1337;72485;-83
2022/12/30 11:47:29;;;;;;;;;;;;;;;16.53;39.78;101554.76;101882;1332;73977;-82
2022/12/30 11:49:55;;;;;;;;;;;;;;;16.54;39.80;101552.77;101999;1322;62102;-82
2022/12/30 11:52:22;;;;;;;;;;;;;;;16.54;39.81;101552.60;102058;1336;62247;-82
2022/12/30 11:54:52;;;;;;;;;;;;;;;16.54;39.86;101545.51;102028;1332;62008;-83
2022/12/30 11:57:18;;;;;;;;;;;;;;;16.54;39.87;101542.30;101983;1332;76006;-83
2022/12/30 11:59:44;;;;;;;;;;;;;;;16.54;39.83;101539.79;102027;1329;62304;-82
2022/12/30 12:02:30;;;;;;;;;;;;;;;16.54;39.81;101539.63;102016;1331;62167;-82
2022/12/30 12:04:57;;;;;;;;;;;;;;;16.54;39.86;101539.09;101987;1336;71474;-83
2022/12/30 12:07:25;;;;;;;;;;;;;;;16.54;39.82;101541.40;102033;1329;75440;-83
2022/12/30 12:10:12;;;;;;;;;;;;;;;16.55;39.83;101549.38;102019;1337;61336;-83
2022/12/30 12:12:49;;;;;;;;;;;;;;;16.55;39.81;101546.34;102308;1326;62197;-83
2022/12/30 12:15:22;;;;;;;;;;;;;;;16.55;39.90;101546.70;102196;1326;73584;-83
2022/12/30 12:17:55;;;;;;;;;;;;;;;16.55;39.87;101541.55;102141;1333;75351;-83
2022/12/30 12:20:21;;;;;;;;;;;;;;;16.55;39.94;101544.20;102203;1326;62278;-83
2022/12/30 12:22:56;;;;;;;;;;;;;;;16.55;39.93;101541.72;102227;1326;62117;-83
2022/12/30 12:25:22;;;;;;;;;;;;;;;16.55;39.97;101546.32;102182;1326;72610;-83
2022/12/30 12:27:50;;;;;;;;;;;;;;;16.55;39.98;101549.16;102223;1332;62222;-82
2022/12/30 12:30:16;;;;;;;;;;;;;;;16.56;39.87;101550.94;102225;1326;62122;-82
2022/12/30 12:32:42;;;;;;;;;;;;;;;16.56;40.00;101552.70;102261;1326;62276;-82
2022/12/30 12:35:22;;;;;;;;;;;;;;;16.56;39.92;101558.75;102246;1327;60899;-82
2022/12/30 12:37:47;;;;;;;;;;;;;;;16.55;40.04;101562.67;102247;1326;75379;-83
2022/12/30 12:40:12;;;;;;;;;;;;;;;16.55;39.94;101559.48;102278;1325;62111;-83
2022/12/30 12:42:38;;;;;;;;;;;;;;;16.55;40.00;101558.78;102265;1329;62187;-83
2022/12/30 12:45:23;;;;;;;;;;;;;;;16.56;39.98;101560.00;102235;1333;62129;-83
2022/12/30 12:48:01;;;;;;;;;;;;;;;16.55;40.01;101561.97;102134;1326;75388;-83
2022/12/30 12:50:32;;;;;;;;;;;;;;;16.55;40.04;101560.88;102211;1326;60691;-83
2022/12/30 12:53:17;;;;;;;;;;;;;;;16.56;40.00;101556.09;102282;1326;62132;-83
2022/12/30 12:55:45;;;;;;;;;;;;;;;16.55;39.94;101561.77;102303;1331;72385;-83
2022/12/30 12:58:11;;;;;;;;;;;;;;;16.55;39.96;101566.40;102235;1314;75501;-83
2022/12/30 13:00:36;;;;;;;;;;;;;;;16.55;39.96;101564.61;102204;1327;62093;-83
2022/12/30 13:03:13;;;;;;;;;;;;;;;16.55;39.90;101570.67;102263;1324;62125;-83
2022/12/30 13:05:54;;;;;;;;;;;;;;;16.55;39.94;101573.88;102227;1325;73620;-83
2022/12/30 13:08:25;;;;;;;;;;;;;;;16.55;39.98;101574.92;102251;1333;76375;-83
2022/12/30 13:10:54;;;;;;;;;;;;;;;16.56;39.94;101577.24;102262;1326;62116;-83
2022/12/30 13:13:32;;;;;;;;;;;;;;;16.55;39.98;101574.77;102233;1333;61892;-83
2022/12/30 13:16:03;;;;;;;;;;;;;;;16.55;40.00;101573.35;102233;1330;73745;-83
2022/12/30 13:18:29;;;;;;;;;;;;;;;16.55;39.96;101572.63;102228;1326;75259;-83
2022/12/30 13:20:55;;;;;;;;;;;;;;;16.55;40.03;101572.98;102304;1326;62182;-83
2022/12/30 13:23:24;;;;;;;;;;;;;;;16.55;39.99;101573.88;102244;1320;62241;-83
2022/12/30 13:26:00;;;;;;;;;;;;;;;16.55;39.99;101569.98;102207;1327;72472;-84
2022/12/30 13:28:26;;;;;;;;;;;;;;;16.55;39.98;101575.48;102227;1326;75610;-83
2022/12/30 13:31:10;;;;;;;;;;;;;;;16.55;39.97;101575.48;102300;1326;61940;-84